createdAt,value
2023-06-30T00:00:32.893Z,2.38
2023-06-30T00:02:53.154Z,1.40
2023-06-30T00:05:16.372Z,1.10
2023-06-30T00:07:38.002Z,1.70
2023-06-30T00:09:58.292Z,1.08
2023-06-30T00:12:18.561Z,1.40
2023-06-30T00:14:39.804Z,1.20
2023-06-30T00:17:00.221Z,1.33
2023-06-30T00:19:20.576Z,1.00
2023-06-30T00:21:42.336Z,1.13
2023-06-30T00:24:04.609Z,1.00
2023-06-30T00:26:24.911Z,1.30
2023-06-30T00:28:45.041Z,1.10
2023-06-30T00:31:05.354Z,1.02
2023-06-30T00:33:25.434Z,1.35
2023-06-30T00:35:46.032Z,1.90
2023-06-30T00:38:06.447Z,3.60
2023-06-30T00:40:26.602Z,1.60
2023-06-30T00:42:46.815Z,1.55
2023-06-30T00:45:07.334Z,1.20
2023-06-30T00:47:27.837Z,1.23
2023-06-30T00:49:47.971Z,2.60
2023-06-30T00:52:08.244Z,1.23
2023-06-30T00:54:28.433Z,1.10
2023-06-30T00:56:48.649Z,1.60
2023-06-30T00:59:08.850Z,1.25
2023-06-30T01:01:41.667Z,1.20
2023-06-30T01:04:04.784Z,1.25
2023-06-30T01:08:50.953Z,1.67
2023-06-30T01:11:11.402Z,1.77
2023-06-30T01:13:32.740Z,1.23
2023-06-30T01:15:53.698Z,1.75
2023-06-30T01:18:16.482Z,1.38
2023-06-30T01:20:40.611Z,1.35
2023-06-30T01:23:11.545Z,2.25
2023-06-30T01:25:32.043Z,2.28
2023-06-30T01:27:53.354Z,1.52
2023-06-30T01:30:17.892Z,1.20
2023-06-30T01:32:38.655Z,5.07
2023-06-30T01:34:59.043Z,1.35
2023-06-30T01:37:18.916Z,1.20
2023-06-30T01:39:39.713Z,1.30
2023-06-30T01:41:59.889Z,1.30
2023-06-30T01:44:20.144Z,2.28
2023-06-30T01:46:40.560Z,1.10
2023-06-30T01:49:00.850Z,1.50
2023-06-30T01:51:21.091Z,1.27
2023-06-30T01:53:41.073Z,1.55
2023-06-30T01:56:01.033Z,3.75
2023-06-30T01:58:21.513Z,4.78
2023-06-30T02:00:41.472Z,1.60
2023-06-30T02:03:01.873Z,1.70
2023-06-30T02:05:22.143Z,1.65
2023-06-30T02:07:42.866Z,1.92
2023-06-30T02:10:03.474Z,1.42
2023-06-30T02:12:23.772Z,1.80
2023-06-30T02:14:43.978Z,1.42
2023-06-30T02:17:05.710Z,1.40
2023-06-30T02:19:26.153Z,1.50
2023-06-30T02:21:46.346Z,1.52
2023-06-30T02:24:06.782Z,1.70
2023-06-30T02:26:27.065Z,1.90
2023-06-30T02:28:47.422Z,1.70
2023-06-30T02:31:08.157Z,1.65
2023-06-30T02:33:28.971Z,1.25
2023-06-30T02:35:51.380Z,2.30
2023-06-30T02:38:11.740Z,3.10
2023-06-30T02:40:33.114Z,1.40
2023-06-30T02:42:53.397Z,1.50
2023-06-30T02:45:13.880Z,1.67
2023-06-30T02:47:33.974Z,1.50
2023-06-30T02:49:54.055Z,1.60
2023-06-30T02:52:14.391Z,1.95
2023-06-30T02:54:34.783Z,1.60
2023-06-30T02:56:55.275Z,1.45
2023-06-30T02:59:15.525Z,1.65
2023-06-30T03:01:36.203Z,2.88
2023-06-30T03:03:56.666Z,1.80
2023-06-30T03:06:17.376Z,1.73
2023-06-30T03:08:37.601Z,1.70
2023-06-30T03:10:57.801Z,1.55
2023-06-30T03:13:18.374Z,3.42
2023-06-30T03:15:38.578Z,2.60
2023-06-30T03:17:58.883Z,1.58
2023-06-30T03:20:19.050Z,2.25
2023-06-30T03:22:42.919Z,2.38
2023-06-30T03:25:04.646Z,2.53
2023-06-30T03:27:25.099Z,3.80
2023-06-30T03:29:45.142Z,1.95
2023-06-30T03:32:05.482Z,2.63
2023-06-30T03:34:25.841Z,5.10
2023-06-30T03:36:46.032Z,1.60
2023-06-30T03:39:06.326Z,2.13
2023-06-30T03:41:27.413Z,1.17
2023-06-30T03:43:47.560Z,1.75
2023-06-30T03:46:10.524Z,1.70
2023-06-30T03:50:53.752Z,1.55
2023-06-30T03:53:13.883Z,1.50
2023-06-30T03:55:34.128Z,1.60
2023-06-30T03:57:54.634Z,3.13
2023-06-30T04:00:15.056Z,3.45
2023-06-30T04:02:35.502Z,2.35
2023-06-30T04:04:55.687Z,3.00
2023-06-30T04:07:15.970Z,2.45
2023-06-30T04:09:36.469Z,2.20
2023-06-30T04:11:56.857Z,4.93
2023-06-30T04:14:17.568Z,2.38
2023-06-30T04:16:37.979Z,1.90
2023-06-30T04:18:58.344Z,2.05
2023-06-30T04:21:18.985Z,2.10
2023-06-30T04:23:39.107Z,2.00
2023-06-30T04:26:01.209Z,1.65
2023-06-30T04:28:21.410Z,2.20
2023-06-30T04:30:41.580Z,2.05
2023-06-30T04:33:01.795Z,3.33
2023-06-30T04:35:25.565Z,1.77
2023-06-30T04:37:45.934Z,1.95
2023-06-30T04:40:06.362Z,1.73
2023-06-30T04:42:30.326Z,1.70
2023-06-30T04:44:51.824Z,2.38
2023-06-30T04:47:12.317Z,1.75
2023-06-30T04:49:32.762Z,1.90
2023-06-30T04:51:53.112Z,2.58
2023-06-30T04:54:13.077Z,4.93
2023-06-30T04:56:33.099Z,1.88
2023-06-30T04:58:53.389Z,1.88
2023-06-30T05:01:13.338Z,1.30
2023-06-30T05:03:33.568Z,1.45
2023-06-30T05:05:57.000Z,2.90
2023-06-30T05:08:17.231Z,2.03
2023-06-30T05:10:38.108Z,1.63
2023-06-30T05:12:58.266Z,2.42
2023-06-30T05:15:18.336Z,2.40
2023-06-30T05:17:38.901Z,2.00
2023-06-30T05:20:00.161Z,2.10
2023-06-30T05:22:22.867Z,2.85
2023-06-30T05:24:43.060Z,1.40
2023-06-30T05:27:03.358Z,1.40
2023-06-30T05:29:23.618Z,2.30
2023-06-30T05:31:43.880Z,3.00
2023-06-30T05:34:04.296Z,1.55
2023-06-30T05:36:24.497Z,2.25
2023-06-30T05:38:44.613Z,1.92
2023-06-30T05:41:04.679Z,1.48
2023-06-30T05:43:24.814Z,1.58
2023-06-30T05:45:45.491Z,1.45
2023-06-30T05:48:06.318Z,5.82
2023-06-30T05:50:27.947Z,1.50
2023-06-30T05:52:48.745Z,1.30
2023-06-30T05:55:08.865Z,2.70
2023-06-30T05:57:28.971Z,1.77
2023-06-30T05:59:49.654Z,1.58
2023-06-30T06:02:10.037Z,1.75
2023-06-30T06:04:30.231Z,1.40
2023-06-30T06:06:50.576Z,1.35
2023-06-30T06:09:11.055Z,1.30
2023-06-30T06:11:31.294Z,1.65
2023-06-30T06:13:51.766Z,1.42
2023-06-30T06:16:12.062Z,1.67
2023-06-30T06:18:32.118Z,1.88
2023-06-30T06:20:52.211Z,1.73
2023-06-30T06:23:12.360Z,1.50
2023-06-30T06:25:32.860Z,1.52
2023-06-30T06:27:53.021Z,1.55
2023-06-30T06:30:13.343Z,2.65
2023-06-30T06:32:33.800Z,1.50
2023-06-30T06:34:53.929Z,2.28
2023-06-30T06:37:14.103Z,2.65
2023-06-30T06:39:34.384Z,3.42
2023-06-30T06:41:54.789Z,1.40
2023-06-30T06:44:14.969Z,1.67
2023-06-30T06:46:35.207Z,2.25
2023-06-30T06:48:55.603Z,1.10
2023-06-30T06:51:16.123Z,1.70
2023-06-30T06:53:36.478Z,2.88
2023-06-30T06:55:57.512Z,1.27
2023-06-30T06:58:18.132Z,2.80
2023-06-30T07:00:38.522Z,2.25
2023-06-30T07:02:58.574Z,2.25
2023-06-30T07:05:18.835Z,1.00
2023-06-30T07:07:39.354Z,1.05
2023-06-30T07:09:59.782Z,1.00
2023-06-30T07:12:19.988Z,2.25
2023-06-30T07:14:40.201Z,1.20
2023-06-30T07:17:00.441Z,1.38
2023-06-30T07:19:20.732Z,1.00
2023-06-30T07:21:41.168Z,2.08
2023-06-30T07:24:03.883Z,1.00
2023-06-30T07:28:47.594Z,1.00
2023-06-30T07:31:08.157Z,1.00
2023-06-30T07:33:28.417Z,3.20
2023-06-30T07:35:48.670Z,0.95
2023-06-30T07:38:09.200Z,1.10
2023-06-30T07:40:38.130Z,1.08
2023-06-30T07:43:02.305Z,1.30
2023-06-30T07:45:22.699Z,4.32
2023-06-30T07:47:43.901Z,1.80
2023-06-30T07:50:09.778Z,1.53
2023-06-30T07:52:30.231Z,1.60
2023-06-30T07:54:55.962Z,0.90
2023-06-30T07:57:16.370Z,1.58
2023-06-30T07:59:36.935Z,2.35
2023-06-30T08:01:56.929Z,2.28
2023-06-30T08:04:19.269Z,3.00
2023-06-30T08:09:00.000Z,1.08
2023-06-30T08:11:20.158Z,1.63
2023-06-30T08:13:40.530Z,2.13
2023-06-30T08:16:01.134Z,1.95
2023-06-30T08:18:30.256Z,2.65
2023-06-30T08:20:56.417Z,1.80
2023-06-30T08:23:17.001Z,1.25
2023-06-30T08:25:37.474Z,2.70
2023-06-30T08:27:57.981Z,1.50
2023-06-30T08:30:20.369Z,3.25
2023-06-30T08:32:43.755Z,2.97
2023-06-30T08:35:04.032Z,2.58
2023-06-30T08:37:24.475Z,2.85
2023-06-30T08:39:44.534Z,1.48
2023-06-30T08:42:05.098Z,0.98
2023-06-30T08:44:25.903Z,5.20
2023-06-30T08:46:46.277Z,0.80
2023-06-30T08:49:07.210Z,4.78
2023-06-30T08:51:27.388Z,1.00
2023-06-30T08:53:52.032Z,1.00
2023-06-30T08:56:14.107Z,1.10
2023-06-30T08:58:34.510Z,2.53
2023-06-30T09:00:59.062Z,1.30
2023-06-30T09:03:20.165Z,2.75
2023-06-30T09:05:41.565Z,1.80
2023-06-30T09:08:03.342Z,1.88
2023-06-30T09:10:37.773Z,1.38
2023-06-30T09:12:58.308Z,1.52
2023-06-30T09:15:19.777Z,1.40
2023-06-30T09:17:40.279Z,5.30
2023-06-30T09:20:00.448Z,1.10
2023-06-30T09:22:53.253Z,1.02
2023-06-30T09:25:04.369Z,2.85
2023-06-30T09:27:28.460Z,3.90
2023-06-30T09:29:54.706Z,2.58
2023-06-30T09:32:16.085Z,2.88
2023-06-30T09:34:36.468Z,4.93
2023-06-30T09:36:57.096Z,1.00
2023-06-30T09:39:18.071Z,7.25
2023-06-30T09:41:38.259Z,3.72
2023-06-30T09:43:59.077Z,1.10
2023-06-30T09:46:21.563Z,2.42
2023-06-30T09:48:43.746Z,0.90
2023-06-30T09:51:03.902Z,7.97
2023-06-30T09:53:24.182Z,1.92
2023-06-30T09:55:48.710Z,4.95
2023-06-30T09:58:12.123Z,2.45
2023-06-30T10:00:36.855Z,1.42
2023-06-30T10:03:04.333Z,2.60
2023-06-30T10:05:24.981Z,3.83
2023-06-30T10:07:45.663Z,2.17
2023-06-30T10:10:06.577Z,2.55
2023-06-30T10:12:27.834Z,3.08
2023-06-30T10:14:49.890Z,4.43
2023-06-30T10:17:10.590Z,1.85
2023-06-30T10:19:31.551Z,3.10
2023-06-30T10:21:51.989Z,2.25
2023-06-30T10:24:13.511Z,4.32
2023-06-30T10:26:35.837Z,2.33
2023-06-30T10:28:56.301Z,2.22
2023-06-30T10:31:17.309Z,6.05
2023-06-30T10:33:38.677Z,1.70
2023-06-30T10:35:59.941Z,4.20
2023-06-30T10:38:20.176Z,1.85
2023-06-30T10:40:40.320Z,2.10
2023-06-30T10:43:00.590Z,2.30
2023-06-30T10:45:21.273Z,2.25
2023-06-30T10:47:42.432Z,1.83
2023-06-30T10:50:12.894Z,1.77
2023-06-30T10:52:33.219Z,2.10
2023-06-30T10:54:54.283Z,1.60
2023-06-30T10:57:18.839Z,2.35
2023-06-30T10:59:40.289Z,3.28
2023-06-30T11:02:11.835Z,2.00
2023-06-30T11:04:39.061Z,1.70
2023-06-30T11:07:07.375Z,1.95
2023-06-30T11:09:27.716Z,3.35
2023-06-30T11:11:51.393Z,1.88
2023-06-30T11:14:11.770Z,1.77
2023-06-30T11:16:52.083Z,1.55
2023-06-30T11:19:23.744Z,1.60
2023-06-30T11:21:44.146Z,1.70
2023-06-30T11:24:14.306Z,2.38
2023-06-30T11:26:36.847Z,1.33
2023-06-30T11:28:57.162Z,1.55
2023-06-30T11:31:18.059Z,1.58
2023-06-30T11:33:41.920Z,1.63
2023-06-30T11:36:02.100Z,1.90
2023-06-30T11:38:22.580Z,3.38
2023-06-30T11:40:46.512Z,1.30
2023-06-30T11:43:06.917Z,1.40
2023-06-30T11:45:30.224Z,1.65
2023-06-30T11:47:54.833Z,2.97
2023-06-30T11:50:15.939Z,1.48
2023-06-30T11:52:37.688Z,1.13
2023-06-30T11:54:58.222Z,1.75
2023-06-30T11:57:18.659Z,1.40
2023-06-30T11:59:39.208Z,1.40
2023-06-30T12:02:00.736Z,1.20
2023-06-30T12:04:23.797Z,1.30
2023-06-30T12:06:44.457Z,1.17
2023-06-30T12:09:04.348Z,1.40
2023-06-30T12:11:24.470Z,2.03
2023-06-30T12:13:45.078Z,1.83
2023-06-30T12:16:05.526Z,1.73
2023-06-30T12:18:37.043Z,2.70
2023-06-30T12:20:58.798Z,1.35
2023-06-30T12:23:27.644Z,1.27
2023-06-30T12:25:48.772Z,3.90
2023-06-30T12:28:12.763Z,1.60
2023-06-30T12:30:33.375Z,1.73
2023-06-30T12:32:58.865Z,1.52
2023-06-30T12:35:27.864Z,1.33
2023-06-30T12:37:49.024Z,2.28
2023-06-30T12:40:09.883Z,2.50
2023-06-30T12:42:30.274Z,1.50
2023-06-30T12:44:50.728Z,1.27
2023-06-30T12:47:11.144Z,2.15
2023-06-30T13:15:06.883Z,1.52
2023-06-30T13:17:27.426Z,1.38
2023-06-30T13:19:48.357Z,2.35
2023-06-30T13:22:08.869Z,1.23
2023-06-30T13:24:29.508Z,2.22
2023-06-30T13:26:49.834Z,1.10
2023-06-30T13:29:11.531Z,4.10
2023-06-30T13:31:32.001Z,1.53
2023-06-30T13:33:52.216Z,1.30
2023-06-30T13:36:13.336Z,1.10
2023-06-30T13:38:33.938Z,1.10
2023-06-30T13:40:54.157Z,1.48
2023-06-30T13:43:14.513Z,1.10
2023-06-30T13:45:34.602Z,0.98
2023-06-30T13:47:54.917Z,2.00
2023-06-30T13:50:16.609Z,2.25
2023-06-30T13:52:37.295Z,1.25
2023-06-30T13:54:57.627Z,1.30
2023-06-30T13:57:18.043Z,4.40
2023-06-30T13:59:40.569Z,1.40
2023-06-30T14:02:01.082Z,1.90
2023-06-30T14:04:21.315Z,1.88
2023-06-30T14:06:41.482Z,1.50
2023-06-30T14:09:02.230Z,1.40
2023-06-30T14:11:24.072Z,2.58
2023-06-30T14:13:45.789Z,1.85
2023-06-30T14:16:06.241Z,1.60
2023-06-30T14:18:26.859Z,1.63
2023-06-30T14:20:48.170Z,1.60
2023-06-30T14:23:08.673Z,1.70
2023-06-30T14:25:28.816Z,2.58
2023-06-30T14:27:49.422Z,1.40
2023-06-30T14:30:11.483Z,2.95
2023-06-30T14:32:34.572Z,1.58
2023-06-30T14:34:54.694Z,1.50
2023-06-30T14:37:15.228Z,1.55
2023-06-30T14:39:35.460Z,1.48
2023-06-30T14:42:02.138Z,2.38
2023-06-30T14:44:26.066Z,2.80
2023-06-30T14:46:46.147Z,1.55
2023-06-30T14:49:07.414Z,1.58
2023-06-30T14:51:27.905Z,1.25
2023-06-30T14:53:48.136Z,2.03
2023-06-30T14:56:08.429Z,2.40
2023-06-30T14:58:29.191Z,3.05
2023-06-30T15:00:49.552Z,2.55
2023-06-30T15:03:10.181Z,2.83
2023-06-30T15:05:30.221Z,1.85
2023-06-30T15:07:53.194Z,2.00
2023-06-30T15:10:13.644Z,2.70
2023-06-30T15:12:34.128Z,2.75
2023-06-30T15:14:54.284Z,2.28
2023-06-30T15:17:14.706Z,3.45
2023-06-30T15:19:35.497Z,3.42
2023-06-30T15:21:55.824Z,2.63
2023-06-30T15:24:16.288Z,2.72
2023-06-30T15:26:36.517Z,3.20
2023-06-30T15:28:56.835Z,2.33
2023-06-30T15:31:17.053Z,2.22
2023-06-30T15:33:37.489Z,2.17
2023-06-30T15:35:57.619Z,2.55
2023-06-30T15:38:17.730Z,2.63
2023-06-30T15:40:39.378Z,1.98
2023-06-30T15:42:59.839Z,2.53
2023-06-30T15:45:20.281Z,1.48
2023-06-30T15:47:40.418Z,2.53
2023-06-30T15:50:00.701Z,2.58
2023-06-30T15:52:21.288Z,3.30
2023-06-30T15:54:41.500Z,2.20
2023-06-30T15:57:01.557Z,2.40
2023-06-30T15:59:21.851Z,2.42
2023-06-30T16:01:42.041Z,2.47
2023-06-30T16:04:02.552Z,3.63
2023-06-30T16:06:23.065Z,3.35
2023-06-30T16:08:43.395Z,3.00
2023-06-30T16:11:03.500Z,3.72
2023-06-30T16:13:26.555Z,3.25
2023-06-30T16:15:47.595Z,3.53
2023-06-30T16:18:08.141Z,3.45
2023-06-30T16:20:28.676Z,3.28
2023-06-30T16:22:48.925Z,4.00
2023-06-30T16:25:09.321Z,2.83
2023-06-30T16:27:29.460Z,2.83
2023-06-30T16:29:51.120Z,3.15
2023-06-30T16:32:11.351Z,3.00
2023-06-30T16:34:31.717Z,2.72
2023-06-30T16:36:52.034Z,2.17
2023-06-30T16:39:12.161Z,2.75
2023-06-30T16:41:32.572Z,3.67
2023-06-30T16:43:52.983Z,2.83
2023-06-30T16:46:13.319Z,2.78
2023-06-30T16:48:33.738Z,3.20
2023-06-30T16:50:54.460Z,3.22
2023-06-30T16:53:15.314Z,2.35
2023-06-30T16:55:35.641Z,3.00
2023-06-30T16:57:55.979Z,3.35
2023-06-30T17:00:16.930Z,2.85
2023-06-30T17:02:38.169Z,3.03
2023-06-30T17:04:59.047Z,2.72
2023-06-30T17:07:22.358Z,3.53
2023-06-30T17:09:42.672Z,3.80
2023-06-30T17:12:03.038Z,2.90
2023-06-30T17:14:23.569Z,3.35
2023-06-30T17:16:43.714Z,3.80
2023-06-30T17:19:04.385Z,3.03
2023-06-30T17:21:24.482Z,2.97
2023-06-30T17:23:44.784Z,3.45
2023-06-30T17:26:04.880Z,3.28
2023-06-30T17:28:25.645Z,2.92
2023-06-30T17:30:45.968Z,2.40
2023-06-30T17:33:07.707Z,2.50
2023-06-30T17:35:28.074Z,2.10
2023-06-30T17:37:48.383Z,1.85
2023-06-30T17:40:09.009Z,3.75
2023-06-30T17:42:29.547Z,2.55
2023-06-30T17:44:50.143Z,2.72
2023-06-30T17:47:10.905Z,2.58
2023-06-30T17:49:33.736Z,3.25
2023-06-30T17:54:16.935Z,2.05
2023-06-30T17:56:38.452Z,2.33
2023-06-30T17:58:58.548Z,2.60
2023-06-30T18:01:18.861Z,2.92
2023-06-30T18:03:39.214Z,3.10
2023-06-30T18:06:01.956Z,3.05
2023-06-30T18:10:42.614Z,4.32
2023-06-30T18:13:03.332Z,2.95
2023-06-30T18:15:23.626Z,3.38
2023-06-30T18:17:44.291Z,4.30
2023-06-30T18:20:06.415Z,4.00
2023-06-30T18:22:26.978Z,5.00
2023-06-30T18:24:47.530Z,4.13
2023-06-30T18:27:07.713Z,4.30
2023-06-30T18:29:27.936Z,6.47
2023-06-30T18:31:48.432Z,9.98
2023-06-30T18:34:08.850Z,5.70
2023-06-30T18:36:29.375Z,5.22
2023-06-30T18:38:49.578Z,6.07
2023-06-30T18:41:09.539Z,5.97
2023-06-30T18:43:29.945Z,5.82
2023-06-30T18:45:50.283Z,4.82
2023-06-30T18:48:10.618Z,6.32
2023-06-30T18:50:31.286Z,4.60
2023-06-30T18:52:51.533Z,4.75
2023-06-30T18:55:12.088Z,5.40
2023-06-30T18:57:33.958Z,6.00
2023-06-30T18:59:54.689Z,4.77
2023-06-30T19:02:14.953Z,5.63
2023-06-30T19:04:35.218Z,5.88
2023-06-30T19:06:55.785Z,5.30
2023-06-30T19:09:17.165Z,5.43
2023-06-30T19:11:37.766Z,5.13
2023-06-30T19:13:58.259Z,5.00
2023-06-30T19:16:18.693Z,6.40
2023-06-30T19:18:39.515Z,5.40
2023-06-30T19:20:59.857Z,5.10
2023-06-30T19:23:21.377Z,4.88
2023-06-30T19:25:43.295Z,5.18
2023-06-30T19:28:03.844Z,5.18
2023-06-30T19:30:25.446Z,4.70
2023-06-30T19:32:45.686Z,5.88
2023-06-30T19:35:06.269Z,4.22
2023-06-30T19:37:26.547Z,4.95
2023-06-30T19:39:47.111Z,4.97
2023-06-30T19:42:07.383Z,4.20
2023-06-30T19:44:27.564Z,5.07
2023-06-30T19:46:50.285Z,5.72
2023-06-30T19:49:10.822Z,5.45
2023-06-30T19:51:30.864Z,5.95
2023-06-30T19:53:51.093Z,5.70
2023-06-30T19:56:13.850Z,5.72
2023-06-30T19:58:34.492Z,6.82
2023-06-30T20:00:54.723Z,5.07
2023-06-30T20:03:15.232Z,6.03
2023-06-30T20:05:36.014Z,6.45
2023-06-30T20:07:56.450Z,5.28
2023-06-30T20:10:16.929Z,5.88
2023-06-30T20:12:36.835Z,6.22
2023-06-30T20:14:57.627Z,5.30
2023-06-30T20:17:18.081Z,5.43
2023-06-30T20:19:43.129Z,5.95
2023-06-30T20:22:03.555Z,5.82
2023-06-30T20:24:23.758Z,6.22
2023-06-30T20:26:43.888Z,5.45
2023-06-30T20:29:04.115Z,6.03
2023-06-30T20:31:24.182Z,4.68
2023-06-30T20:33:44.609Z,5.45
2023-06-30T20:36:04.804Z,6.97
2023-06-30T20:38:25.088Z,8.25
2023-06-30T20:40:45.651Z,4.95
2023-06-30T20:43:07.675Z,5.28
2023-06-30T20:45:30.935Z,5.32
2023-06-30T20:47:52.836Z,5.40
2023-06-30T20:50:13.120Z,8.23
2023-06-30T20:52:33.388Z,5.03
2023-06-30T20:54:53.736Z,5.43
2023-06-30T20:57:14.037Z,5.00
2023-06-30T20:59:34.648Z,5.70
2023-06-30T21:01:54.905Z,5.70
2023-06-30T21:04:15.341Z,6.60
2023-06-30T21:06:35.784Z,7.97
2023-06-30T21:08:56.190Z,5.05
2023-06-30T21:11:17.953Z,5.63
2023-06-30T21:13:38.601Z,6.80
2023-06-30T21:15:58.816Z,6.05
2023-06-30T21:18:18.919Z,6.80
2023-06-30T21:20:39.398Z,6.55
2023-06-30T21:23:00.112Z,6.43
2023-06-30T21:25:20.175Z,6.45
2023-06-30T21:27:40.410Z,6.13
2023-06-30T21:30:00.717Z,5.82
2023-06-30T21:32:21.898Z,7.03
2023-06-30T21:34:42.451Z,6.60
2023-06-30T21:37:02.853Z,6.32
2023-06-30T21:39:23.358Z,6.22
2023-06-30T21:41:43.430Z,5.63
2023-06-30T21:44:03.889Z,6.00
2023-06-30T21:46:24.048Z,6.85
2023-06-30T21:48:44.463Z,6.53
2023-06-30T21:51:04.893Z,5.78
2023-06-30T21:53:25.188Z,6.95
2023-06-30T21:55:45.233Z,7.63
2023-06-30T21:58:14.727Z,6.32
2023-06-30T22:00:43.413Z,7.18
2023-06-30T22:03:03.791Z,7.20
2023-06-30T22:05:24.273Z,6.63
2023-06-30T22:07:44.202Z,8.63
2023-06-30T22:10:06.338Z,7.93
2023-06-30T22:12:26.611Z,7.35
2023-06-30T22:14:46.706Z,6.55
2023-06-30T22:17:06.905Z,6.72
2023-06-30T22:19:27.162Z,7.53
2023-06-30T22:21:47.675Z,6.10
2023-06-30T22:24:08.094Z,6.60
2023-06-30T22:26:28.440Z,6.78
2023-06-30T22:28:48.602Z,7.18
2023-06-30T22:31:08.929Z,6.97
2023-06-30T22:33:29.077Z,8.20
2023-06-30T22:35:49.281Z,6.80
2023-06-30T22:38:09.794Z,6.90
2023-06-30T22:40:30.107Z,6.60
2023-06-30T22:42:50.439Z,6.95
2023-06-30T22:45:10.940Z,7.30
2023-06-30T22:47:31.285Z,7.50
2023-06-30T22:49:51.450Z,7.80
2023-06-30T22:52:11.928Z,8.32
2023-06-30T22:54:33.091Z,7.50
2023-06-30T22:56:53.103Z,6.60
2023-06-30T22:59:13.349Z,7.05
2023-06-30T23:01:33.613Z,7.38
2023-06-30T23:03:53.905Z,6.78
2023-06-30T23:06:14.476Z,6.10
2023-06-30T23:08:34.670Z,7.70
2023-06-30T23:10:54.984Z,6.93
2023-06-30T23:13:15.091Z,6.75
2023-06-30T23:15:35.214Z,5.93
2023-06-30T23:17:55.661Z,8.02
2023-06-30T23:20:16.622Z,6.10
2023-06-30T23:22:37.426Z,6.30
2023-06-30T23:24:58.010Z,6.13
2023-06-30T23:27:19.365Z,5.93
2023-06-30T23:29:39.635Z,6.32
2023-06-30T23:32:06.163Z,6.10
2023-06-30T23:34:29.154Z,7.32
2023-06-30T23:36:49.685Z,6.13
2023-06-30T23:39:09.794Z,5.38
2023-06-30T23:41:29.923Z,6.57
2023-06-30T23:43:50.617Z,6.80
2023-06-30T23:46:18.614Z,7.05
2023-06-30T23:48:39.033Z,5.30
2023-06-30T23:50:59.188Z,7.00
2023-06-30T23:53:19.641Z,9.10
2023-06-30T23:55:40.052Z,5.85
2023-06-30T23:58:00.284Z,5.60
